Terminal Aerodrome Forecast
Issued by NWS Blacksburg, VA

Home | Current Version | Previous Version | Text Only | Print | Product List | Glossary On
Versions: 1 2 3 4 5 6 7 8 9 10 11 12 13 14 15
000
FTUS41 KRNK 230538
TAFROA
TAF
KROA 230538Z 2306/2406 26005KT P6SM SCT060
     FM231200 28006KT P6SM VCSH BKN040
     FM232200 31008KT P6SM SCT060=

USA.gov is the U.S. government's official web portal to all federal, state and local government web resources and services.